sensor_id;sensor_type;location;lat;lon;timestamp;P1;durP1;ratioP1;P2;durP2;ratioP2
14118;SDS011;7138;49.246;9.100;2024-03-02T00:00:22;22.45;;;17.17;;
14118;SDS011;7138;49.246;9.100;2024-03-02T00:02:50;25.55;;;17.35;;
14118;SDS011;7138;49.246;9.100;2024-03-02T00:05:17;26.38;;;17.55;;
14118;SDS011;7138;49.246;9.100;2024-03-02T00:07:45;25.00;;;17.10;;
14118;SDS011;7138;49.246;9.100;2024-03-02T00:10:20;24.67;;;17.35;;
14118;SDS011;7138;49.246;9.100;2024-03-02T00:12:53;25.95;;;18.75;;
14118;SDS011;7138;49.246;9.100;2024-03-02T00:15:33;27.52;;;18.90;;
14118;SDS011;7138;49.246;9.100;2024-03-02T00:18:10;28.80;;;19.35;;
14118;SDS011;7138;49.246;9.100;2024-03-02T00:20:38;26.90;;;19.25;;
14118;SDS011;7138;49.246;9.100;2024-03-02T00:23:04;30.88;;;19.27;;
14118;SDS011;7138;49.246;9.100;2024-03-02T00:25:37;27.55;;;19.27;;
14118;SDS011;7138;49.246;9.100;2024-03-02T00:28:18;27.52;;;19.42;;
14118;SDS011;7138;49.246;9.100;2024-03-02T00:30:56;28.10;;;19.50;;
14118;SDS011;7138;49.246;9.100;2024-03-02T00:33:26;27.17;;;18.83;;
14118;SDS011;7138;49.246;9.100;2024-03-02T00:35:57;26.30;;;18.50;;
14118;SDS011;7138;49.246;9.100;2024-03-02T00:38:24;25.98;;;18.98;;
14118;SDS011;7138;49.246;9.100;2024-03-02T00:40:52;25.67;;;18.25;;
14118;SDS011;7138;49.246;9.100;2024-03-02T00:46:16;25.75;;;18.40;;
14118;SDS011;7138;49.246;9.100;2024-03-02T00:48:48;25.98;;;18.50;;
14118;SDS011;7138;49.246;9.100;2024-03-02T00:51:19;26.45;;;18.67;;
14118;SDS011;7138;49.246;9.100;2024-03-02T00:53:46;25.15;;;17.98;;
14118;SDS011;7138;49.246;9.100;2024-03-02T00:56:14;27.02;;;17.38;;
14118;SDS011;7138;49.246;9.100;2024-03-02T00:58:40;27.88;;;18.02;;
14118;SDS011;7138;49.246;9.100;2024-03-02T01:01:06;24.35;;;17.33;;
14118;SDS011;7138;49.246;9.100;2024-03-02T01:03:32;27.45;;;17.23;;
14118;SDS011;7138;49.246;9.100;2024-03-02T01:05:58;24.80;;;16.83;;
14118;SDS011;7138;49.246;9.100;2024-03-02T01:08:24;25.50;;;16.92;;
14118;SDS011;7138;49.246;9.100;2024-03-02T01:10:51;23.38;;;17.00;;
14118;SDS011;7138;49.246;9.100;2024-03-02T01:13:18;24.90;;;16.83;;
14118;SDS011;7138;49.246;9.100;2024-03-02T01:15:44;23.58;;;16.42;;
14118;SDS011;7138;49.246;9.100;2024-03-02T01:18:10;25.60;;;17.42;;
14118;SDS011;7138;49.246;9.100;2024-03-02T01:20:36;24.35;;;16.90;;
14118;SDS011;7138;49.246;9.100;2024-03-02T01:23:02;24.45;;;16.52;;
14118;SDS011;7138;49.246;9.100;2024-03-02T01:25:28;24.10;;;16.90;;
14118;SDS011;7138;49.246;9.100;2024-03-02T01:27:54;22.80;;;16.50;;
14118;SDS011;7138;49.246;9.100;2024-03-02T01:30:21;23.58;;;15.38;;
14118;SDS011;7138;49.246;9.100;2024-03-02T01:32:47;24.33;;;16.77;;
14118;SDS011;7138;49.246;9.100;2024-03-02T01:35:12;22.48;;;15.50;;
14118;SDS011;7138;49.246;9.100;2024-03-02T01:37:40;24.85;;;16.40;;
14118;SDS011;7138;49.246;9.100;2024-03-02T01:40:06;27.08;;;17.52;;
14118;SDS011;7138;49.246;9.100;2024-03-02T01:42:35;24.10;;;16.52;;
14118;SDS011;7138;49.246;9.100;2024-03-02T01:45:01;28.13;;;16.73;;
14118;SDS011;7138;49.246;9.100;2024-03-02T01:47:30;22.92;;;16.48;;
14118;SDS011;7138;49.246;9.100;2024-03-02T01:49:56;22.67;;;15.85;;
14118;SDS011;7138;49.246;9.100;2024-03-02T01:52:22;23.48;;;16.50;;
14118;SDS011;7138;49.246;9.100;2024-03-02T01:54:48;22.88;;;16.20;;
14118;SDS011;7138;49.246;9.100;2024-03-02T01:57:14;24.08;;;16.83;;
14118;SDS011;7138;49.246;9.100;2024-03-02T01:59:40;28.25;;;17.95;;
14118;SDS011;7138;49.246;9.100;2024-03-02T02:02:06;23.73;;;17.05;;
14118;SDS011;7138;49.246;9.100;2024-03-02T02:04:34;24.60;;;16.35;;
14118;SDS011;7138;49.246;9.100;2024-03-02T02:07:00;24.75;;;15.85;;
14118;SDS011;7138;49.246;9.100;2024-03-02T02:09:26;24.75;;;17.48;;
14118;SDS011;7138;49.246;9.100;2024-03-02T02:11:52;23.45;;;16.23;;
14118;SDS011;7138;49.246;9.100;2024-03-02T02:14:18;22.73;;;16.33;;
14118;SDS011;7138;49.246;9.100;2024-03-02T02:16:44;22.50;;;17.05;;
14118;SDS011;7138;49.246;9.100;2024-03-02T02:19:10;23.25;;;16.02;;
14118;SDS011;7138;49.246;9.100;2024-03-02T02:21:38;24.73;;;16.67;;
14118;SDS011;7138;49.246;9.100;2024-03-02T02:24:07;24.80;;;16.52;;
14118;SDS011;7138;49.246;9.100;2024-03-02T02:26:33;24.88;;;16.33;;
14118;SDS011;7138;49.246;9.100;2024-03-02T02:28:59;24.10;;;16.55;;
14118;SDS011;7138;49.246;9.100;2024-03-02T02:31:25;23.10;;;16.17;;
14118;SDS011;7138;49.246;9.100;2024-03-02T02:33:51;23.02;;;16.30;;
14118;SDS011;7138;49.246;9.100;2024-03-02T02:36:17;24.38;;;16.98;;
14118;SDS011;7138;49.246;9.100;2024-03-02T02:38:45;21.55;;;16.00;;
14118;SDS011;7138;49.246;9.100;2024-03-02T02:41:15;23.02;;;16.17;;
14118;SDS011;7138;49.246;9.100;2024-03-02T02:43:41;23.55;;;15.73;;
14118;SDS011;7138;49.246;9.100;2024-03-02T02:46:06;23.70;;;15.63;;
14118;SDS011;7138;49.246;9.100;2024-03-02T02:48:32;21.85;;;14.77;;
14118;SDS011;7138;49.246;9.100;2024-03-02T02:50:58;23.30;;;15.80;;
14118;SDS011;7138;49.246;9.100;2024-03-02T02:53:24;22.73;;;15.88;;
14118;SDS011;7138;49.246;9.100;2024-03-02T02:55:51;24.48;;;15.23;;
14118;SDS011;7138;49.246;9.100;2024-03-02T02:58:17;23.83;;;16.23;;
14118;SDS011;7138;49.246;9.100;2024-03-02T03:00:43;21.40;;;14.82;;
14118;SDS011;7138;49.246;9.100;2024-03-02T03:03:09;22.45;;;15.35;;
14118;SDS011;7138;49.246;9.100;2024-03-02T03:05:34;21.08;;;14.40;;
14118;SDS011;7138;49.246;9.100;2024-03-02T03:08:00;23.55;;;15.60;;
14118;SDS011;7138;49.246;9.100;2024-03-02T03:10:26;24.25;;;16.75;;
14118;SDS011;7138;49.246;9.100;2024-03-02T03:12:54;21.23;;;14.98;;
14118;SDS011;7138;49.246;9.100;2024-03-02T03:15:21;22.58;;;15.88;;
14118;SDS011;7138;49.246;9.100;2024-03-02T03:17:46;25.48;;;15.50;;
14118;SDS011;7138;49.246;9.100;2024-03-02T03:20:12;23.33;;;15.23;;
14118;SDS011;7138;49.246;9.100;2024-03-02T03:22:40;24.52;;;16.45;;
14118;SDS011;7138;49.246;9.100;2024-03-02T03:25:06;24.38;;;16.85;;
14118;SDS011;7138;49.246;9.100;2024-03-02T03:27:35;27.08;;;16.45;;
14118;SDS011;7138;49.246;9.100;2024-03-02T03:30:03;24.98;;;17.35;;
14118;SDS011;7138;49.246;9.100;2024-03-02T03:32:31;22.15;;;15.73;;
14118;SDS011;7138;49.246;9.100;2024-03-02T03:34:56;22.50;;;15.48;;
14118;SDS011;7138;49.246;9.100;2024-03-02T03:37:22;24.35;;;16.00;;
14118;SDS011;7138;49.246;9.100;2024-03-02T03:39:49;24.65;;;16.73;;
14118;SDS011;7138;49.246;9.100;2024-03-02T03:42:15;23.00;;;15.32;;
14118;SDS011;7138;49.246;9.100;2024-03-02T03:44:41;22.67;;;15.23;;
14118;SDS011;7138;49.246;9.100;2024-03-02T03:47:08;21.45;;;15.07;;
14118;SDS011;7138;49.246;9.100;2024-03-02T03:49:33;21.45;;;15.23;;
14118;SDS011;7138;49.246;9.100;2024-03-02T03:51:59;23.75;;;16.25;;
14118;SDS011;7138;49.246;9.100;2024-03-02T03:54:25;23.55;;;16.48;;
14118;SDS011;7138;49.246;9.100;2024-03-02T03:56:51;25.38;;;17.17;;
14118;SDS011;7138;49.246;9.100;2024-03-02T03:59:17;25.50;;;16.65;;
14118;SDS011;7138;49.246;9.100;2024-03-02T04:01:43;25.88;;;16.20;;
14118;SDS011;7138;49.246;9.100;2024-03-02T04:04:10;24.55;;;16.33;;
14118;SDS011;7138;49.246;9.100;2024-03-02T04:06:36;23.50;;;15.10;;
14118;SDS011;7138;49.246;9.100;2024-03-02T04:09:03;24.52;;;16.42;;
14118;SDS011;7138;49.246;9.100;2024-03-02T04:11:29;23.15;;;14.93;;
14118;SDS011;7138;49.246;9.100;2024-03-02T04:13:55;21.05;;;14.50;;
14118;SDS011;7138;49.246;9.100;2024-03-02T04:16:21;20.10;;;14.43;;
14118;SDS011;7138;49.246;9.100;2024-03-02T04:18:47;23.88;;;15.32;;
14118;SDS011;7138;49.246;9.100;2024-03-02T04:21:14;22.15;;;15.32;;
14118;SDS011;7138;49.246;9.100;2024-03-02T04:23:40;20.67;;;14.70;;
14118;SDS011;7138;49.246;9.100;2024-03-02T04:26:05;19.98;;;14.63;;
14118;SDS011;7138;49.246;9.100;2024-03-02T04:28:31;22.33;;;14.93;;
14118;SDS011;7138;49.246;9.100;2024-03-02T04:30:58;21.98;;;14.68;;
14118;SDS011;7138;49.246;9.100;2024-03-02T04:33:23;18.27;;;13.40;;
14118;SDS011;7138;49.246;9.100;2024-03-02T04:35:49;18.67;;;14.32;;
14118;SDS011;7138;49.246;9.100;2024-03-02T04:38:16;21.40;;;13.52;;
14118;SDS011;7138;49.246;9.100;2024-03-02T04:40:42;19.27;;;13.68;;
14118;SDS011;7138;49.246;9.100;2024-03-02T04:43:08;20.27;;;14.13;;
14118;SDS011;7138;49.246;9.100;2024-03-02T04:45:35;20.38;;;13.65;;
14118;SDS011;7138;49.246;9.100;2024-03-02T04:48:03;18.08;;;13.27;;
14118;SDS011;7138;49.246;9.100;2024-03-02T04:50:30;18.75;;;12.60;;
14118;SDS011;7138;49.246;9.100;2024-03-02T04:52:56;18.17;;;13.13;;
14118;SDS011;7138;49.246;9.100;2024-03-02T04:55:23;17.08;;;12.07;;
14118;SDS011;7138;49.246;9.100;2024-03-02T04:58:08;25.17;;;15.70;;
14118;SDS011;7138;49.246;9.100;2024-03-02T05:00:34;29.70;;;19.15;;
14118;SDS011;7138;49.246;9.100;2024-03-02T05:03:01;22.33;;;15.93;;
14118;SDS011;7138;49.246;9.100;2024-03-02T05:05:27;18.75;;;13.07;;
14118;SDS011;7138;49.246;9.100;2024-03-02T05:07:53;20.35;;;13.40;;
14118;SDS011;7138;49.246;9.100;2024-03-02T05:10:18;18.55;;;12.52;;
14118;SDS011;7138;49.246;9.100;2024-03-02T05:12:46;17.33;;;12.68;;
14118;SDS011;7138;49.246;9.100;2024-03-02T05:15:22;18.38;;;12.88;;
14118;SDS011;7138;49.246;9.100;2024-03-02T05:17:47;17.60;;;12.93;;
14118;SDS011;7138;49.246;9.100;2024-03-02T05:20:13;20.60;;;13.38;;
14118;SDS011;7138;49.246;9.100;2024-03-02T05:22:39;19.13;;;13.05;;
14118;SDS011;7138;49.246;9.100;2024-03-02T05:25:05;19.23;;;12.82;;
14118;SDS011;7138;49.246;9.100;2024-03-02T05:27:32;19.05;;;13.38;;
14118;SDS011;7138;49.246;9.100;2024-03-02T05:29:59;19.00;;;13.40;;
14118;SDS011;7138;49.246;9.100;2024-03-02T05:32:26;19.65;;;13.50;;
14118;SDS011;7138;49.246;9.100;2024-03-02T05:34:54;19.80;;;13.85;;
14118;SDS011;7138;49.246;9.100;2024-03-02T05:37:20;19.10;;;13.10;;
14118;SDS011;7138;49.246;9.100;2024-03-02T05:39:45;19.05;;;13.05;;
14118;SDS011;7138;49.246;9.100;2024-03-02T05:42:11;17.75;;;13.32;;
14118;SDS011;7138;49.246;9.100;2024-03-02T05:44:38;18.67;;;12.93;;
14118;SDS011;7138;49.246;9.100;2024-03-02T05:47:05;18.65;;;12.88;;
14118;SDS011;7138;49.246;9.100;2024-03-02T05:49:33;18.67;;;13.52;;
14118;SDS011;7138;49.246;9.100;2024-03-02T05:51:59;18.67;;;13.35;;
14118;SDS011;7138;49.246;9.100;2024-03-02T05:54:25;18.35;;;12.88;;
14118;SDS011;7138;49.246;9.100;2024-03-02T05:56:51;18.65;;;13.68;;
14118;SDS011;7138;49.246;9.100;2024-03-02T05:59:17;20.55;;;13.23;;
14118;SDS011;7138;49.246;9.100;2024-03-02T06:01:43;20.00;;;12.70;;
14118;SDS011;7138;49.246;9.100;2024-03-02T06:04:13;20.02;;;12.80;;
14118;SDS011;7138;49.246;9.100;2024-03-02T06:06:40;17.17;;;12.60;;
14118;SDS011;7138;49.246;9.100;2024-03-02T06:09:06;18.70;;;12.82;;
14118;SDS011;7138;49.246;9.100;2024-03-02T06:11:33;20.52;;;14.10;;
14118;SDS011;7138;49.246;9.100;2024-03-02T06:13:58;18.30;;;13.68;;
14118;SDS011;7138;49.246;9.100;2024-03-02T06:16:24;20.95;;;13.88;;
14118;SDS011;7138;49.246;9.100;2024-03-02T06:18:50;18.35;;;13.02;;
14118;SDS011;7138;49.246;9.100;2024-03-02T06:21:17;21.17;;;14.63;;
14118;SDS011;7138;49.246;9.100;2024-03-02T06:23:43;19.83;;;13.85;;
14118;SDS011;7138;49.246;9.100;2024-03-02T06:26:09;19.77;;;14.02;;
14118;SDS011;7138;49.246;9.100;2024-03-02T06:28:35;20.17;;;13.98;;
14118;SDS011;7138;49.246;9.100;2024-03-02T06:31:01;22.05;;;14.13;;
14118;SDS011;7138;49.246;9.100;2024-03-02T06:33:28;29.75;;;19.63;;
14118;SDS011;7138;49.246;9.100;2024-03-02T06:35:54;26.00;;;17.00;;
14118;SDS011;7138;49.246;9.100;2024-03-02T06:38:21;23.60;;;16.33;;
14118;SDS011;7138;49.246;9.100;2024-03-02T06:40:47;21.92;;;15.13;;
14118;SDS011;7138;49.246;9.100;2024-03-02T06:43:13;20.00;;;14.27;;
14118;SDS011;7138;49.246;9.100;2024-03-02T06:45:39;20.42;;;13.73;;
14118;SDS011;7138;49.246;9.100;2024-03-02T06:48:05;20.55;;;14.25;;
14118;SDS011;7138;49.246;9.100;2024-03-02T06:50:32;20.67;;;13.95;;
14118;SDS011;7138;49.246;9.100;2024-03-02T06:52:58;21.52;;;13.32;;
14118;SDS011;7138;49.246;9.100;2024-03-02T06:55:25;19.30;;;13.93;;
14118;SDS011;7138;49.246;9.100;2024-03-02T06:57:50;20.90;;;14.32;;
14118;SDS011;7138;49.246;9.100;2024-03-02T07:00:17;22.17;;;14.73;;
14118;SDS011;7138;49.246;9.100;2024-03-02T07:02:45;20.00;;;14.15;;
14118;SDS011;7138;49.246;9.100;2024-03-02T07:05:12;18.60;;;13.60;;
14118;SDS011;7138;49.246;9.100;2024-03-02T07:07:38;22.63;;;14.32;;
14118;SDS011;7138;49.246;9.100;2024-03-02T07:10:04;20.75;;;14.15;;
14118;SDS011;7138;49.246;9.100;2024-03-02T07:12:33;19.10;;;13.68;;
14118;SDS011;7138;49.246;9.100;2024-03-02T07:14:59;22.13;;;14.95;;
14118;SDS011;7138;49.246;9.100;2024-03-02T07:17:28;19.67;;;14.27;;
14118;SDS011;7138;49.246;9.100;2024-03-02T07:19:54;17.75;;;13.63;;
14118;SDS011;7138;49.246;9.100;2024-03-02T07:22:19;23.40;;;14.77;;
14118;SDS011;7138;49.246;9.100;2024-03-02T07:24:45;21.27;;;14.00;;
14118;SDS011;7138;49.246;9.100;2024-03-02T07:27:12;22.45;;;15.02;;
14118;SDS011;7138;49.246;9.100;2024-03-02T07:29:40;21.88;;;14.38;;
14118;SDS011;7138;49.246;9.100;2024-03-02T07:32:06;20.92;;;14.65;;
14118;SDS011;7138;49.246;9.100;2024-03-02T07:34:33;21.88;;;14.38;;
14118;SDS011;7138;49.246;9.100;2024-03-02T07:36:59;21.58;;;14.32;;
14118;SDS011;7138;49.246;9.100;2024-03-02T07:39:26;20.15;;;14.23;;
14118;SDS011;7138;49.246;9.100;2024-03-02T07:41:52;22.05;;;15.27;;
14118;SDS011;7138;49.246;9.100;2024-03-02T07:44:18;26.58;;;15.55;;
14118;SDS011;7138;49.246;9.100;2024-03-02T07:46:46;23.23;;;14.98;;
14118;SDS011;7138;49.246;9.100;2024-03-02T07:51:40;20.45;;;13.82;;
14118;SDS011;7138;49.246;9.100;2024-03-02T07:54:06;20.05;;;14.75;;
14118;SDS011;7138;49.246;9.100;2024-03-02T07:56:32;24.25;;;15.13;;
14118;SDS011;7138;49.246;9.100;2024-03-02T07:58:58;20.08;;;14.10;;
14118;SDS011;7138;49.246;9.100;2024-03-02T08:01:26;18.98;;;14.07;;
14118;SDS011;7138;49.246;9.100;2024-03-02T08:03:53;20.27;;;14.57;;
14118;SDS011;7138;49.246;9.100;2024-03-02T08:06:20;22.23;;;14.43;;
14118;SDS011;7138;49.246;9.100;2024-03-02T08:08:46;20.33;;;13.63;;
14118;SDS011;7138;49.246;9.100;2024-03-02T08:11:12;19.98;;;13.73;;
14118;SDS011;7138;49.246;9.100;2024-03-02T08:13:38;22.23;;;13.73;;
14118;SDS011;7138;49.246;9.100;2024-03-02T08:16:04;21.17;;;14.55;;
14118;SDS011;7138;49.246;9.100;2024-03-02T08:18:34;17.27;;;12.95;;
14118;SDS011;7138;49.246;9.100;2024-03-02T08:21:01;18.90;;;13.20;;
14118;SDS011;7138;49.246;9.100;2024-03-02T08:23:28;17.98;;;13.10;;
14118;SDS011;7138;49.246;9.100;2024-03-02T08:25:54;19.40;;;13.60;;
14118;SDS011;7138;49.246;9.100;2024-03-02T08:28:20;19.13;;;13.32;;
14118;SDS011;7138;49.246;9.100;2024-03-02T08:30:46;19.35;;;13.60;;
14118;SDS011;7138;49.246;9.100;2024-03-02T08:33:12;18.23;;;13.38;;
14118;SDS011;7138;49.246;9.100;2024-03-02T08:35:37;20.52;;;14.23;;
14118;SDS011;7138;49.246;9.100;2024-03-02T08:38:05;19.13;;;13.70;;
14118;SDS011;7138;49.246;9.100;2024-03-02T08:40:31;19.48;;;13.82;;
14118;SDS011;7138;49.246;9.100;2024-03-02T08:42:57;21.48;;;14.85;;
14118;SDS011;7138;49.246;9.100;2024-03-02T08:45:23;18.90;;;14.32;;
14118;SDS011;7138;49.246;9.100;2024-03-02T08:47:48;21.58;;;14.80;;
14118;SDS011;7138;49.246;9.100;2024-03-02T08:50:14;22.67;;;13.95;;
14118;SDS011;7138;49.246;9.100;2024-03-02T08:52:40;21.85;;;14.50;;
14118;SDS011;7138;49.246;9.100;2024-03-02T08:55:09;22.10;;;15.20;;
14118;SDS011;7138;49.246;9.100;2024-03-02T08:57:36;23.63;;;15.35;;
14118;SDS011;7138;49.246;9.100;2024-03-02T09:00:02;19.77;;;14.35;;
14118;SDS011;7138;49.246;9.100;2024-03-02T09:02:30;19.98;;;14.32;;
14118;SDS011;7138;49.246;9.100;2024-03-02T09:04:56;20.60;;;14.02;;
14118;SDS011;7138;49.246;9.100;2024-03-02T09:07:22;18.85;;;13.93;;
14118;SDS011;7138;49.246;9.100;2024-03-02T09:09:48;19.63;;;14.10;;
14118;SDS011;7138;49.246;9.100;2024-03-02T09:12:16;19.42;;;13.85;;
14118;SDS011;7138;49.246;9.100;2024-03-02T09:14:41;21.58;;;13.55;;
14118;SDS011;7138;49.246;9.100;2024-03-02T09:17:07;19.20;;;13.57;;
14118;SDS011;7138;49.246;9.100;2024-03-02T09:19:35;19.50;;;13.90;;
14118;SDS011;7138;49.246;9.100;2024-03-02T09:22:01;18.15;;;13.38;;
14118;SDS011;7138;49.246;9.100;2024-03-02T09:24:28;19.50;;;13.80;;
14118;SDS011;7138;49.246;9.100;2024-03-02T09:26:54;17.20;;;12.73;;
14118;SDS011;7138;49.246;9.100;2024-03-02T09:29:21;17.33;;;12.55;;
14118;SDS011;7138;49.246;9.100;2024-03-02T09:31:47;16.33;;;11.98;;
14118;SDS011;7138;49.246;9.100;2024-03-02T09:34:14;17.67;;;13.00;;
14118;SDS011;7138;49.246;9.100;2024-03-02T09:36:40;17.60;;;12.38;;
14118;SDS011;7138;49.246;9.100;2024-03-02T09:39:07;15.20;;;10.98;;
14118;SDS011;7138;49.246;9.100;2024-03-02T09:41:34;17.80;;;11.52;;
14118;SDS011;7138;49.246;9.100;2024-03-02T09:44:01;15.68;;;11.35;;
14118;SDS011;7138;49.246;9.100;2024-03-02T09:46:29;17.25;;;11.93;;
14118;SDS011;7138;49.246;9.100;2024-03-02T09:48:56;15.05;;;11.07;;
14118;SDS011;7138;49.246;9.100;2024-03-02T09:51:22;16.35;;;11.98;;
14118;SDS011;7138;49.246;9.100;2024-03-02T09:53:48;16.45;;;11.10;;
14118;SDS011;7138;49.246;9.100;2024-03-02T09:56:15;15.65;;;11.10;;
14118;SDS011;7138;49.246;9.100;2024-03-02T09:58:41;14.23;;;10.98;;
14118;SDS011;7138;49.246;9.100;2024-03-02T10:01:08;15.32;;;10.77;;
14118;SDS011;7138;49.246;9.100;2024-03-02T10:03:36;14.43;;;10.15;;
14118;SDS011;7138;49.246;9.100;2024-03-02T10:06:21;14.02;;;10.55;;
14118;SDS011;7138;49.246;9.100;2024-03-02T10:08:48;13.80;;;9.60;;
14118;SDS011;7138;49.246;9.100;2024-03-02T10:11:24;13.88;;;9.90;;
14118;SDS011;7138;49.246;9.100;2024-03-02T10:14:03;13.50;;;10.02;;
14118;SDS011;7138;49.246;9.100;2024-03-02T10:16:33;13.43;;;9.52;;
14118;SDS011;7138;49.246;9.100;2024-03-02T10:19:14;10.93;;;8.55;;
14118;SDS011;7138;49.246;9.100;2024-03-02T10:21:42;12.20;;;8.82;;
14118;SDS011;7138;49.246;9.100;2024-03-02T10:24:08;12.48;;;8.43;;
14118;SDS011;7138;49.246;9.100;2024-03-02T10:26:35;10.68;;;7.97;;
14118;SDS011;7138;49.246;9.100;2024-03-02T10:29:00;11.13;;;8.15;;
14118;SDS011;7138;49.246;9.100;2024-03-02T10:31:27;10.85;;;7.38;;
14118;SDS011;7138;49.246;9.100;2024-03-02T10:33:53;11.27;;;8.23;;
14118;SDS011;7138;49.246;9.100;2024-03-02T10:36:21;12.88;;;9.23;;
14118;SDS011;7138;49.246;9.100;2024-03-02T10:38:47;12.60;;;8.73;;
14118;SDS011;7138;49.246;9.100;2024-03-02T10:41:16;13.13;;;8.82;;
14118;SDS011;7138;49.246;9.100;2024-03-02T10:43:43;11.70;;;8.30;;
14118;SDS011;7138;49.246;9.100;2024-03-02T10:46:11;12.23;;;8.05;;
14118;SDS011;7138;49.246;9.100;2024-03-02T10:48:39;10.75;;;7.80;;
14118;SDS011;7138;49.246;9.100;2024-03-02T10:51:10;10.05;;;7.13;;
14118;SDS011;7138;49.246;9.100;2024-03-02T10:53:38;11.55;;;7.70;;
14118;SDS011;7138;49.246;9.100;2024-03-02T10:56:04;10.60;;;7.68;;
14118;SDS011;7138;49.246;9.100;2024-03-02T10:58:36;10.68;;;7.43;;
14118;SDS011;7138;49.246;9.100;2024-03-02T11:01:03;10.38;;;7.70;;
14118;SDS011;7138;49.246;9.100;2024-03-02T11:03:33;10.05;;;7.03;;
14118;SDS011;7138;49.246;9.100;2024-03-02T11:06:02;11.40;;;7.53;;
14118;SDS011;7138;49.246;9.100;2024-03-02T11:08:32;10.52;;;7.38;;
14118;SDS011;7138;49.246;9.100;2024-03-02T11:11:04;10.45;;;7.20;;
14118;SDS011;7138;49.246;9.100;2024-03-02T11:13:38;9.80;;;7.32;;
14118;SDS011;7138;49.246;9.100;2024-03-02T11:16:15;9.85;;;6.85;;
14118;SDS011;7138;49.246;9.100;2024-03-02T11:18:57;9.00;;;6.32;;
14118;SDS011;7138;49.246;9.100;2024-03-02T11:21:24;10.00;;;7.25;;
14118;SDS011;7138;49.246;9.100;2024-03-02T11:23:51;8.85;;;6.65;;
14118;SDS011;7138;49.246;9.100;2024-03-02T11:26:18;10.52;;;7.10;;
14118;SDS011;7138;49.246;9.100;2024-03-02T11:28:44;9.02;;;6.07;;
14118;SDS011;7138;49.246;9.100;2024-03-02T11:31:11;8.80;;;6.57;;
14118;SDS011;7138;49.246;9.100;2024-03-02T11:33:37;8.32;;;5.90;;
14118;SDS011;7138;49.246;9.100;2024-03-02T11:36:03;8.30;;;5.53;;
14118;SDS011;7138;49.246;9.100;2024-03-02T11:38:32;8.02;;;4.70;;
14118;SDS011;7138;49.246;9.100;2024-03-02T11:40:59;8.73;;;5.05;;
14118;SDS011;7138;49.246;9.100;2024-03-02T11:43:29;7.40;;;5.10;;
14118;SDS011;7138;49.246;9.100;2024-03-02T11:45:58;8.43;;;5.18;;
14118;SDS011;7138;49.246;9.100;2024-03-02T11:48:24;8.32;;;5.68;;
14118;SDS011;7138;49.246;9.100;2024-03-02T11:50:51;8.80;;;5.57;;
14118;SDS011;7138;49.246;9.100;2024-03-02T11:53:18;7.10;;;4.95;;
14118;SDS011;7138;49.246;9.100;2024-03-02T11:55:45;7.50;;;5.20;;
14118;SDS011;7138;49.246;9.100;2024-03-02T11:58:12;8.30;;;5.90;;
14118;SDS011;7138;49.246;9.100;2024-03-02T12:00:40;9.77;;;5.30;;
14118;SDS011;7138;49.246;9.100;2024-03-02T12:03:07;7.70;;;4.90;;
14118;SDS011;7138;49.246;9.100;2024-03-02T12:05:35;6.28;;;4.20;;
14118;SDS011;7138;49.246;9.100;2024-03-02T12:08:01;7.25;;;3.88;;
14118;SDS011;7138;49.246;9.100;2024-03-02T12:10:29;7.40;;;4.05;;
14118;SDS011;7138;49.246;9.100;2024-03-02T12:12:56;8.48;;;4.40;;
14118;SDS011;7138;49.246;9.100;2024-03-02T12:15:23;7.78;;;4.10;;
14118;SDS011;7138;49.246;9.100;2024-03-02T12:17:54;6.95;;;4.22;;
14118;SDS011;7138;49.246;9.100;2024-03-02T12:20:20;6.28;;;3.83;;
14118;SDS011;7138;49.246;9.100;2024-03-02T12:22:48;5.78;;;3.50;;
14118;SDS011;7138;49.246;9.100;2024-03-02T12:25:17;5.18;;;3.53;;
14118;SDS011;7138;49.246;9.100;2024-03-02T12:27:44;4.93;;;3.00;;
14118;SDS011;7138;49.246;9.100;2024-03-02T12:30:11;4.18;;;2.50;;
14118;SDS011;7138;49.246;9.100;2024-03-02T12:32:38;4.00;;;2.40;;
14118;SDS011;7138;49.246;9.100;2024-03-02T12:35:07;5.20;;;3.05;;
14118;SDS011;7138;49.246;9.100;2024-03-02T12:37:41;5.82;;;2.75;;
14118;SDS011;7138;49.246;9.100;2024-03-02T12:40:09;6.68;;;2.33;;
14118;SDS011;7138;49.246;9.100;2024-03-02T12:42:36;4.75;;;2.80;;
14118;SDS011;7138;49.246;9.100;2024-03-02T12:45:02;5.43;;;2.83;;
14118;SDS011;7138;49.246;9.100;2024-03-02T12:47:29;5.13;;;2.80;;
14118;SDS011;7138;49.246;9.100;2024-03-02T12:49:55;4.47;;;2.55;;
14118;SDS011;7138;49.246;9.100;2024-03-02T12:52:22;5.15;;;2.72;;
14118;SDS011;7138;49.246;9.100;2024-03-02T12:54:48;5.80;;;2.83;;
14118;SDS011;7138;49.246;9.100;2024-03-02T12:57:16;5.00;;;3.13;;
14118;SDS011;7138;49.246;9.100;2024-03-02T12:59:44;4.63;;;2.80;;
14118;SDS011;7138;49.246;9.100;2024-03-02T13:02:16;4.88;;;2.80;;
14118;SDS011;7138;49.246;9.100;2024-03-02T13:04:43;5.50;;;2.67;;
14118;SDS011;7138;49.246;9.100;2024-03-02T13:07:09;5.22;;;2.67;;
14118;SDS011;7138;49.246;9.100;2024-03-02T13:09:39;4.50;;;2.40;;
14118;SDS011;7138;49.246;9.100;2024-03-02T13:12:06;5.43;;;2.30;;
14118;SDS011;7138;49.246;9.100;2024-03-02T13:14:32;5.43;;;3.10;;
14118;SDS011;7138;49.246;9.100;2024-03-02T13:16:58;5.30;;;2.33;;
14118;SDS011;7138;49.246;9.100;2024-03-02T13:19:25;4.35;;;2.60;;
14118;SDS011;7138;49.246;9.100;2024-03-02T13:21:51;4.18;;;2.42;;
14118;SDS011;7138;49.246;9.100;2024-03-02T13:24:17;4.72;;;1.98;;
14118;SDS011;7138;49.246;9.100;2024-03-02T13:26:46;4.65;;;2.60;;
14118;SDS011;7138;49.246;9.100;2024-03-02T13:29:12;4.63;;;2.13;;
14118;SDS011;7138;49.246;9.100;2024-03-02T13:31:38;4.03;;;2.38;;
14118;SDS011;7138;49.246;9.100;2024-03-02T13:34:04;3.72;;;2.08;;
14118;SDS011;7138;49.246;9.100;2024-03-02T13:36:30;4.10;;;1.80;;
14118;SDS011;7138;49.246;9.100;2024-03-02T13:38:56;3.72;;;1.80;;
14118;SDS011;7138;49.246;9.100;2024-03-02T13:41:23;3.20;;;1.67;;
14118;SDS011;7138;49.246;9.100;2024-03-02T13:43:50;3.85;;;1.90;;
14118;SDS011;7138;49.246;9.100;2024-03-02T13:46:16;3.38;;;1.90;;
14118;SDS011;7138;49.246;9.100;2024-03-02T13:48:41;3.40;;;1.50;;
14118;SDS011;7138;49.246;9.100;2024-03-02T13:51:07;5.00;;;1.85;;
14118;SDS011;7138;49.246;9.100;2024-03-02T13:53:34;4.38;;;1.80;;
14118;SDS011;7138;49.246;9.100;2024-03-02T13:56:00;3.47;;;1.70;;
14118;SDS011;7138;49.246;9.100;2024-03-02T13:58:26;3.22;;;1.52;;
14118;SDS011;7138;49.246;9.100;2024-03-02T14:00:53;2.85;;;1.25;;
14118;SDS011;7138;49.246;9.100;2024-03-02T14:03:21;3.03;;;1.30;;
14118;SDS011;7138;49.246;9.100;2024-03-02T14:05:47;2.65;;;1.20;;
14118;SDS011;7138;49.246;9.100;2024-03-02T14:08:15;2.97;;;1.15;;
14118;SDS011;7138;49.246;9.100;2024-03-02T14:10:41;2.20;;;1.08;;
14118;SDS011;7138;49.246;9.100;2024-03-02T14:13:07;2.30;;;0.90;;
14118;SDS011;7138;49.246;9.100;2024-03-02T14:15:33;2.47;;;0.90;;
14118;SDS011;7138;49.246;9.100;2024-03-02T14:20:31;2.08;;;0.60;;
14118;SDS011;7138;49.246;9.100;2024-03-02T14:22:58;1.80;;;0.70;;
14118;SDS011;7138;49.246;9.100;2024-03-02T14:25:24;1.83;;;0.77;;
14118;SDS011;7138;49.246;9.100;2024-03-02T14:27:50;1.70;;;0.70;;
14118;SDS011;7138;49.246;9.100;2024-03-02T14:30:16;2.30;;;0.95;;
14118;SDS011;7138;49.246;9.100;2024-03-02T14:32:42;2.97;;;0.82;;
14118;SDS011;7138;49.246;9.100;2024-03-02T14:35:09;4.55;;;0.52;;
14118;SDS011;7138;49.246;9.100;2024-03-02T14:37:35;1.42;;;0.47;;
14118;SDS011;7138;49.246;9.100;2024-03-02T14:40:02;1.63;;;0.70;;
14118;SDS011;7138;49.246;9.100;2024-03-02T14:42:31;1.70;;;0.60;;
14118;SDS011;7138;49.246;9.100;2024-03-02T14:44:57;1.50;;;0.52;;
14118;SDS011;7138;49.246;9.100;2024-03-02T14:47:23;1.33;;;0.55;;